sensor_id;sensor_type;location;lat;lon;timestamp;pressure;altitude;pressure_sealevel;temperature;humidity
37852;BME280;23691;52.486;4.650;2023-02-19T00:03:58;101751.03;;;10.08;94.92
37852;BME280;23691;52.486;4.650;2023-02-19T00:06:26;101744.97;;;10.06;94.87
37852;BME280;23691;52.486;4.650;2023-02-19T00:08:51;101748.78;;;10.03;95.13
37852;BME280;23691;52.486;4.650;2023-02-19T00:11:20;101740.03;;;10.01;95.27
37852;BME280;23691;52.486;4.650;2023-02-19T00:13:47;101741.16;;;9.99;95.54
37852;BME280;23691;52.486;4.650;2023-02-19T00:16:19;101742.44;;;9.95;95.58
37852;BME280;23691;52.486;4.650;2023-02-19T00:18:45;101753.28;;;9.93;95.70
37852;BME280;23691;52.486;4.650;2023-02-19T00:21:11;101757.91;;;9.91;95.79
37852;BME280;23691;52.486;4.650;2023-02-19T00:23:36;101755.22;;;9.91;95.88
37852;BME280;23691;52.486;4.650;2023-02-19T00:26:03;101759.88;;;9.89;95.81
37852;BME280;23691;52.486;4.650;2023-02-19T00:28:29;101753.84;;;9.87;96.21
37852;BME280;23691;52.486;4.650;2023-02-19T00:30:54;101756.34;;;9.88;95.81
37852;BME280;23691;52.486;4.650;2023-02-19T00:33:20;101752.97;;;9.86;95.57
37852;BME280;23691;52.486;4.650;2023-02-19T00:35:45;101765.63;;;9.84;95.99
37852;BME280;23691;52.486;4.650;2023-02-19T00:38:10;101758.47;;;9.85;95.82
37852;BME280;23691;52.486;4.650;2023-02-19T00:40:37;101767.59;;;9.82;96.24
37852;BME280;23691;52.486;4.650;2023-02-19T00:43:03;101760.28;;;9.84;96.15
37852;BME280;23691;52.486;4.650;2023-02-19T00:45:28;101768.28;;;9.84;96.22
37852;BME280;23691;52.486;4.650;2023-02-19T00:47:53;101768.16;;;9.86;96.22
37852;BME280;23691;52.486;4.650;2023-02-19T00:50:19;101773.50;;;9.86;96.01
37852;BME280;23691;52.486;4.650;2023-02-19T00:52:44;101762.69;;;9.87;95.96
37852;BME280;23691;52.486;4.650;2023-02-19T00:55:09;101765.63;;;9.84;95.64
37852;BME280;23691;52.486;4.650;2023-02-19T00:57:35;101765.06;;;9.81;95.83
37852;BME280;23691;52.486;4.650;2023-02-19T01:00:00;101769.84;;;9.77;95.61
37852;BME280;23691;52.486;4.650;2023-02-19T01:02:25;101763.63;;;9.77;95.49
37852;BME280;23691;52.486;4.650;2023-02-19T01:04:51;101775.19;;;9.77;95.53
37852;BME280;23691;52.486;4.650;2023-02-19T01:07:17;101763.78;;;9.75;95.71
37852;BME280;23691;52.486;4.650;2023-02-19T01:09:43;101774.47;;;9.75;95.68
37852;BME280;23691;52.486;4.650;2023-02-19T01:12:08;101770.25;;;9.73;95.74
37852;BME280;23691;52.486;4.650;2023-02-19T01:14:34;101775.31;;;9.76;95.98
37852;BME280;23691;52.486;4.650;2023-02-19T01:16:59;101783.22;;;9.77;95.97
37852;BME280;23691;52.486;4.650;2023-02-19T01:19:25;101780.53;;;9.77;95.85
37852;BME280;23691;52.486;4.650;2023-02-19T01:21:50;101778.53;;;9.79;95.96
37852;BME280;23691;52.486;4.650;2023-02-19T01:24:16;101780.66;;;9.76;95.87
37852;BME280;23691;52.486;4.650;2023-02-19T01:26:41;101775.44;;;9.74;95.77
37852;BME280;23691;52.486;4.650;2023-02-19T01:29:08;101797.81;;;9.73;95.97
37852;BME280;23691;52.486;4.650;2023-02-19T01:31:34;101781.91;;;9.72;96.08
37852;BME280;23691;52.486;4.650;2023-02-19T01:34:01;101785.28;;;9.74;96.13
37852;BME280;23691;52.486;4.650;2023-02-19T01:36:29;101780.78;;;9.74;96.22
37852;BME280;23691;52.486;4.650;2023-02-19T01:38:59;101791.47;;;9.74;95.84
37852;BME280;23691;52.486;4.650;2023-02-19T01:41:24;101788.97;;;9.73;95.94
37852;BME280;23691;52.486;4.650;2023-02-19T01:46:31;101795.16;;;9.73;95.85
37852;BME280;23691;52.486;4.650;2023-02-19T01:49:08;101791.03;;;9.69;95.22
37852;BME280;23691;52.486;4.650;2023-02-19T01:51:38;101784.97;;;9.67;95.38
37852;BME280;23691;52.486;4.650;2023-02-19T01:54:07;101794.44;;;9.71;95.39
37852;BME280;23691;52.486;4.650;2023-02-19T01:56:35;101797.94;;;9.72;95.21
37852;BME280;23691;52.486;4.650;2023-02-19T01:59:02;101804.00;;;9.74;95.35
37852;BME280;23691;52.486;4.650;2023-02-19T02:01:28;101804.84;;;9.74;95.18
37852;BME280;23691;52.486;4.650;2023-02-19T02:03:53;101807.50;;;9.74;95.03
37852;BME280;23691;52.486;4.650;2023-02-19T02:06:30;101803.03;;;9.75;94.72
37852;BME280;23691;52.486;4.650;2023-02-19T02:08:58;101802.44;;;9.71;94.62
37852;BME280;23691;52.486;4.650;2023-02-19T02:11:56;101806.22;;;9.68;94.79
37852;BME280;23691;52.486;4.650;2023-02-19T02:14:25;101807.22;;;9.67;94.67
37852;BME280;23691;52.486;4.650;2023-02-19T02:22:58;101805.06;;;9.61;95.05
37852;BME280;23691;52.486;4.650;2023-02-19T02:31:03;101811.81;;;9.56;94.94
37852;BME280;23691;52.486;4.650;2023-02-19T02:33:47;101812.53;;;9.58;95.00
37852;BME280;23691;52.486;4.650;2023-02-19T02:36:34;101798.47;;;9.56;94.86
37852;BME280;23691;52.486;4.650;2023-02-19T02:39:02;101800.53;;;9.52;94.87
37852;BME280;23691;52.486;4.650;2023-02-19T02:41:31;101806.03;;;9.51;94.98
37852;BME280;23691;52.486;4.650;2023-02-19T02:43:56;101811.22;;;9.52;95.15
37852;BME280;23691;52.486;4.650;2023-02-19T02:46:27;101816.56;;;9.52;95.04
37852;BME280;23691;52.486;4.650;2023-02-19T02:48:59;101820.94;;;9.53;95.10
37852;BME280;23691;52.486;4.650;2023-02-19T02:51:49;101822.78;;;9.53;94.87
37852;BME280;23691;52.486;4.650;2023-02-19T02:54:23;101817.84;;;9.48;95.07
37852;BME280;23691;52.486;4.650;2023-02-19T02:57:09;101824.84;;;9.49;94.90
37852;BME280;23691;52.486;4.650;2023-02-19T02:59:39;101826.81;;;9.47;94.75
37852;BME280;23691;52.486;4.650;2023-02-19T03:02:12;101827.69;;;9.48;95.06
37852;BME280;23691;52.486;4.650;2023-02-19T03:07:38;101843.56;;;9.49;94.90
37852;BME280;23691;52.486;4.650;2023-02-19T03:10:09;101839.31;;;9.46;94.39
37852;BME280;23691;52.486;4.650;2023-02-19T03:12:37;101826.09;;;9.45;94.66
37852;BME280;23691;52.486;4.650;2023-02-19T03:15:24;101845.66;;;9.45;94.90
37852;BME280;23691;52.486;4.650;2023-02-19T03:18:11;101841.28;;;9.44;94.70
37852;BME280;23691;52.486;4.650;2023-02-19T03:20:57;101853.91;;;9.42;94.94
37852;BME280;23691;52.486;4.650;2023-02-19T03:23:26;101841.44;;;9.43;94.76
37852;BME280;23691;52.486;4.650;2023-02-19T03:26:16;101841.28;;;9.44;95.01
37852;BME280;23691;52.486;4.650;2023-02-19T03:28:44;101841.16;;;9.46;94.61
37852;BME280;23691;52.486;4.650;2023-02-19T03:31:30;101867.97;;;9.44;95.03
37852;BME280;23691;52.486;4.650;2023-02-19T03:33:59;101851.25;;;9.42;94.62
37852;BME280;23691;52.486;4.650;2023-02-19T03:36:42;101857.31;;;9.44;94.64
37852;BME280;23691;52.486;4.650;2023-02-19T03:39:12;101851.84;;;9.46;94.65
37852;BME280;23691;52.486;4.650;2023-02-19T03:47:08;101867.28;;;9.42;94.50
37852;BME280;23691;52.486;4.650;2023-02-19T03:50:09;101865.31;;;9.44;94.51
37852;BME280;23691;52.486;4.650;2023-02-19T03:52:53;101870.94;;;9.41;94.61
37852;BME280;23691;52.486;4.650;2023-02-19T03:55:34;101872.03;;;9.39;95.02
37852;BME280;23691;52.486;4.650;2023-02-19T03:58:14;101883.84;;;9.36;94.80
37852;BME280;23691;52.486;4.650;2023-02-19T04:00:57;101884.69;;;9.37;94.83
37852;BME280;23691;52.486;4.650;2023-02-19T04:03:35;101896.19;;;9.37;95.16
37852;BME280;23691;52.486;4.650;2023-02-19T04:06:10;101898.19;;;9.35;95.43
37852;BME280;23691;52.486;4.650;2023-02-19T04:08:38;101902.81;;;9.33;95.38
37852;BME280;23691;52.486;4.650;2023-02-19T04:11:06;101901.81;;;9.34;95.85
37852;BME280;23691;52.486;4.650;2023-02-19T04:13:42;101900.84;;;9.35;95.86
37852;BME280;23691;52.486;4.650;2023-02-19T04:16:13;101905.31;;;9.35;95.69
37852;BME280;23691;52.486;4.650;2023-02-19T04:18:43;101920.25;;;9.37;95.80
37852;BME280;23691;52.486;4.650;2023-02-19T04:21:09;101918.56;;;9.36;95.91
37852;BME280;23691;52.486;4.650;2023-02-19T04:23:40;101918.28;;;9.39;96.09
37852;BME280;23691;52.486;4.650;2023-02-19T04:26:07;101929.69;;;9.41;95.92
37852;BME280;23691;52.486;4.650;2023-02-19T04:28:33;101930.53;;;9.42;95.88
37852;BME280;23691;52.486;4.650;2023-02-19T04:31:00;101931.53;;;9.41;95.79
37852;BME280;23691;52.486;4.650;2023-02-19T04:33:26;101937.81;;;9.40;95.98
37852;BME280;23691;52.486;4.650;2023-02-19T04:35:51;101952.44;;;9.36;95.89
37852;BME280;23691;52.486;4.650;2023-02-19T04:38:16;101948.94;;;9.35;96.01
37852;BME280;23691;52.486;4.650;2023-02-19T04:40:42;101948.06;;;9.35;95.93
37852;BME280;23691;52.486;4.650;2023-02-19T04:43:07;101955.34;;;9.33;95.83
37852;BME280;23691;52.486;4.650;2023-02-19T04:45:32;101955.50;;;9.31;95.84
37852;BME280;23691;52.486;4.650;2023-02-19T04:47:58;101952.09;;;9.29;95.91
37852;BME280;23691;52.486;4.650;2023-02-19T04:50:23;101959.13;;;9.30;95.75
37852;BME280;23691;52.486;4.650;2023-02-19T04:52:49;101956.59;;;9.29;95.54
37852;BME280;23691;52.486;4.650;2023-02-19T04:55:16;101963.78;;;9.28;95.52
37852;BME280;23691;52.486;4.650;2023-02-19T04:57:41;101969.34;;;9.25;95.37
37852;BME280;23691;52.486;4.650;2023-02-19T05:00:08;101976.50;;;9.24;95.39
37852;BME280;23691;52.486;4.650;2023-02-19T05:02:34;101970.34;;;9.24;95.60
37852;BME280;23691;52.486;4.650;2023-02-19T05:04:59;101975.56;;;9.26;95.83
37852;BME280;23691;52.486;4.650;2023-02-19T05:07:25;101975.56;;;9.26;95.42
37852;BME280;23691;52.486;4.650;2023-02-19T05:09:50;101978.22;;;9.26;95.54
37852;BME280;23691;52.486;4.650;2023-02-19T05:12:15;101984.41;;;9.26;95.75
37852;BME280;23691;52.486;4.650;2023-02-19T05:14:41;101981.00;;;9.24;95.55
37852;BME280;23691;52.486;4.650;2023-02-19T05:17:06;101988.41;;;9.20;95.62
37852;BME280;23691;52.486;4.650;2023-02-19T05:19:32;101976.16;;;9.18;95.43
37852;BME280;23691;52.486;4.650;2023-02-19T05:21:57;101985.88;;;9.19;95.63
37852;BME280;23691;52.486;4.650;2023-02-19T05:24:23;101995.47;;;9.21;95.81
37852;BME280;23691;52.486;4.650;2023-02-19T05:26:49;101989.13;;;9.22;95.90
37852;BME280;23691;52.486;4.650;2023-02-19T05:29:14;101992.69;;;9.23;95.77
37852;BME280;23691;52.486;4.650;2023-02-19T05:31:40;101997.16;;;9.22;95.71
37852;BME280;23691;52.486;4.650;2023-02-19T05:34:06;101996.44;;;9.20;96.14
37852;BME280;23691;52.486;4.650;2023-02-19T05:36:31;101999.34;;;9.17;95.82
37852;BME280;23691;52.486;4.650;2023-02-19T05:38:57;102005.69;;;9.16;95.51
37852;BME280;23691;52.486;4.650;2023-02-19T05:41:25;102011.03;;;9.16;95.71
37852;BME280;23691;52.486;4.650;2023-02-19T05:43:52;102003.13;;;9.15;95.67
37852;BME280;23691;52.486;4.650;2023-02-19T05:46:21;102013.81;;;9.15;95.40
37852;BME280;23691;52.486;4.650;2023-02-19T05:48:48;102009.19;;;9.17;95.54
37852;BME280;23691;52.486;4.650;2023-02-19T05:51:19;102025.78;;;9.20;95.33
37852;BME280;23691;52.486;4.650;2023-02-19T05:53:45;102027.63;;;9.20;95.22
37852;BME280;23691;52.486;4.650;2023-02-19T05:58:55;102028.34;;;9.22;95.17
37852;BME280;23691;52.486;4.650;2023-02-19T06:01:23;102032.75;;;9.23;94.71
37852;BME280;23691;52.486;4.650;2023-02-19T06:03:48;102040.88;;;9.21;94.27
37852;BME280;23691;52.486;4.650;2023-02-19T06:06:15;102045.47;;;9.19;94.21
37852;BME280;23691;52.486;4.650;2023-02-19T06:08:41;102045.47;;;9.19;94.18
37852;BME280;23691;52.486;4.650;2023-02-19T06:11:07;102048.16;;;9.19;94.28
37852;BME280;23691;52.486;4.650;2023-02-19T06:13:32;102046.31;;;9.20;94.31
37852;BME280;23691;52.486;4.650;2023-02-19T06:15:58;102056.03;;;9.21;94.36
37852;BME280;23691;52.486;4.650;2023-02-19T06:18:23;102054.94;;;9.23;94.02
37852;BME280;23691;52.486;4.650;2023-02-19T06:20:48;102060.41;;;9.22;94.17
37852;BME280;23691;52.486;4.650;2023-02-19T06:23:14;102053.22;;;9.22;94.16
37852;BME280;23691;52.486;4.650;2023-02-19T06:25:39;102058.81;;;9.19;93.82
37852;BME280;23691;52.486;4.650;2023-02-19T06:28:05;102060.66;;;9.19;94.03
37852;BME280;23691;52.486;4.650;2023-02-19T06:30:30;102057.16;;;9.18;94.08
37852;BME280;23691;52.486;4.650;2023-02-19T06:32:56;102057.84;;;9.20;93.96
37852;BME280;23691;52.486;4.650;2023-02-19T06:35:21;102070.13;;;9.23;93.82
37852;BME280;23691;52.486;4.650;2023-02-19T06:37:47;102071.19;;;9.20;93.84
37852;BME280;23691;52.486;4.650;2023-02-19T06:40:13;102072.28;;;9.18;93.82
37852;BME280;23691;52.486;4.650;2023-02-19T06:42:38;102088.19;;;9.19;93.74
37852;BME280;23691;52.486;4.650;2023-02-19T06:45:04;102088.47;;;9.16;93.98
37852;BME280;23691;52.486;4.650;2023-02-19T06:47:30;102096.59;;;9.15;94.39
37852;BME280;23691;52.486;4.650;2023-02-19T06:49:56;102100.25;;;9.14;94.29
37852;BME280;23691;52.486;4.650;2023-02-19T06:52:21;102106.53;;;9.13;94.71
37852;BME280;23691;52.486;4.650;2023-02-19T06:54:46;102105.56;;;9.14;94.48
37852;BME280;23691;52.486;4.650;2023-02-19T06:57:12;102104.84;;;9.12;94.82
37852;BME280;23691;52.486;4.650;2023-02-19T06:59:37;102108.34;;;9.12;95.40
37852;BME280;23691;52.486;4.650;2023-02-19T07:02:03;102115.63;;;9.10;94.66
37852;BME280;23691;52.486;4.650;2023-02-19T07:04:28;102112.97;;;9.10;95.22
37852;BME280;23691;52.486;4.650;2023-02-19T07:06:53;102125.38;;;9.11;95.12
37852;BME280;23691;52.486;4.650;2023-02-19T07:09:19;102129.88;;;9.11;95.39
37852;BME280;23691;52.486;4.650;2023-02-19T07:11:44;102139.66;;;9.10;95.29
37852;BME280;23691;52.486;4.650;2023-02-19T07:14:14;102138.56;;;9.13;95.42
37852;BME280;23691;52.486;4.650;2023-02-19T07:16:39;102141.13;;;9.14;95.22
37852;BME280;23691;52.486;4.650;2023-02-19T07:19:05;102142.81;;;9.15;95.17
37852;BME280;23691;52.486;4.650;2023-02-19T07:21:30;102148.78;;;9.19;95.09
37852;BME280;23691;52.486;4.650;2023-02-19T07:23:56;102168.41;;;9.18;94.83
37852;BME280;23691;52.486;4.650;2023-02-19T07:26:22;102156.06;;;9.17;94.81
37852;BME280;23691;52.486;4.650;2023-02-19T07:28:49;102159.72;;;9.16;94.88
37852;BME280;23691;52.486;4.650;2023-02-19T07:31:17;102158.00;;;9.15;94.76
37852;BME280;23691;52.486;4.650;2023-02-19T07:33:43;102167.94;;;9.13;94.56
37852;BME280;23691;52.486;4.650;2023-02-19T07:36:09;102169.66;;;9.14;94.31
37852;BME280;23691;52.486;4.650;2023-02-19T07:38:34;102181.06;;;9.16;94.64
37852;BME280;23691;52.486;4.650;2023-02-19T07:41:02;102184.44;;;9.18;94.32
37852;BME280;23691;52.486;4.650;2023-02-19T07:43:30;102183.84;;;9.14;94.31
37852;BME280;23691;52.486;4.650;2023-02-19T07:45:57;102181.28;;;9.13;94.16
37852;BME280;23691;52.486;4.650;2023-02-19T07:48:22;102179.59;;;9.12;94.08
37852;BME280;23691;52.486;4.650;2023-02-19T07:50:52;102178.50;;;9.14;94.25
37852;BME280;23691;52.486;4.650;2023-02-19T07:53:18;102190.66;;;9.18;94.42
37852;BME280;23691;52.486;4.650;2023-02-19T07:55:43;102202.28;;;9.17;94.47
37852;BME280;23691;52.486;4.650;2023-02-19T07:58:09;102204.38;;;9.14;94.46
37852;BME280;23691;52.486;4.650;2023-02-19T08:00:34;102206.41;;;9.10;94.61
37852;BME280;23691;52.486;4.650;2023-02-19T08:02:59;102204.38;;;9.14;94.57
37852;BME280;23691;52.486;4.650;2023-02-19T08:05:31;102194.91;;;9.21;94.71
37852;BME280;23691;52.486;4.650;2023-02-19T08:07:58;102191.47;;;9.30;94.66
37852;BME280;23691;52.486;4.650;2023-02-19T08:10:23;102201.06;;;9.44;94.69
37852;BME280;23691;52.486;4.650;2023-02-19T08:13:13;102204.19;;;9.49;94.27
37852;BME280;23691;52.486;4.650;2023-02-19T08:15:48;102218.66;;;9.58;94.12
37852;BME280;23691;52.486;4.650;2023-02-19T08:18:15;102224.47;;;9.63;93.94
37852;BME280;23691;52.486;4.650;2023-02-19T08:20:41;102240.25;;;9.66;93.81
37852;BME280;23691;52.486;4.650;2023-02-19T08:23:07;102239.38;;;9.77;93.92
37852;BME280;23691;52.486;4.650;2023-02-19T08:25:33;102260.13;;;9.84;93.42
37852;BME280;23691;52.486;4.650;2023-02-19T08:27:59;102257.59;;;9.83;92.94
37852;BME280;23691;52.486;4.650;2023-02-19T08:30:25;102248.59;;;9.84;93.20
37852;BME280;23691;52.486;4.650;2023-02-19T08:32:51;102248.72;;;9.82;93.07
37852;BME280;23691;52.486;4.650;2023-02-19T08:35:16;102244.47;;;9.80;93.44
37852;BME280;23691;52.486;4.650;2023-02-19T08:37:42;102243.66;;;9.68;93.12
37852;BME280;23691;52.486;4.650;2023-02-19T08:40:07;102242.91;;;9.66;93.37
37852;BME280;23691;52.486;4.650;2023-02-19T08:42:33;102244.59;;;9.67;93.36
37852;BME280;23691;52.486;4.650;2023-02-19T08:44:58;102256.28;;;9.77;93.14
37852;BME280;23691;52.486;4.650;2023-02-19T08:47:23;102259.41;;;9.82;92.80
37852;BME280;23691;52.486;4.650;2023-02-19T08:49:49;102248.94;;;9.91;92.29
37852;BME280;23691;52.486;4.650;2023-02-19T08:52:14;102246.09;;;10.03;92.11
37852;BME280;23691;52.486;4.650;2023-02-19T08:54:40;102251.16;;;10.18;91.50
37852;BME280;23691;52.486;4.650;2023-02-19T08:57:05;102268.78;;;10.20;91.61
37852;BME280;23691;52.486;4.650;2023-02-19T08:59:31;102276.78;;;10.20;91.47
37852;BME280;23691;52.486;4.650;2023-02-19T09:01:59;102279.72;;;10.17;91.07
37852;BME280;23691;52.486;4.650;2023-02-19T09:04:25;102284.16;;;10.07;91.11
37852;BME280;23691;52.486;4.650;2023-02-19T09:06:50;102288.84;;;10.15;90.74
37852;BME280;23691;52.486;4.650;2023-02-19T09:09:16;102301.75;;;10.09;90.89
37852;BME280;23691;52.486;4.650;2023-02-19T09:11:41;102307.22;;;10.08;90.88
37852;BME280;23691;52.486;4.650;2023-02-19T09:14:06;102310.88;;;10.07;90.66
37852;BME280;23691;52.486;4.650;2023-02-19T09:16:35;102325.47;;;10.03;90.42
37852;BME280;23691;52.486;4.650;2023-02-19T09:19:06;102338.25;;;9.99;90.19
37852;BME280;23691;52.486;4.650;2023-02-19T09:21:32;102345.06;;;9.92;89.83
37852;BME280;23691;52.486;4.650;2023-02-19T09:23:57;102349.06;;;9.86;89.37
37852;BME280;23691;52.486;4.650;2023-02-19T09:26:22;102353.69;;;9.84;89.04
37852;BME280;23691;52.486;4.650;2023-02-19T09:28:49;102355.13;;;9.88;88.66
37852;BME280;23691;52.486;4.650;2023-02-19T09:31:14;102356.47;;;10.05;88.97
37852;BME280;23691;52.486;4.650;2023-02-19T09:33:44;102360.56;;;10.21;88.71
37852;BME280;23691;52.486;4.650;2023-02-19T09:36:10;102363.38;;;10.30;88.34
37852;BME280;23691;52.486;4.650;2023-02-19T09:38:35;102371.84;;;10.36;88.34
37852;BME280;23691;52.486;4.650;2023-02-19T09:41:31;102375.63;;;10.44;88.13
37852;BME280;23691;52.486;4.650;2023-02-19T09:44:00;102388.84;;;10.46;87.78
37852;BME280;23691;52.486;4.650;2023-02-19T09:46:30;102384.88;;;10.40;87.58
37852;BME280;23691;52.486;4.650;2023-02-19T09:49:19;102390.94;;;10.42;87.61
37852;BME280;23691;52.486;4.650;2023-02-19T09:51:53;102391.31;;;10.49;87.55
37852;BME280;23691;52.486;4.650;2023-02-19T09:54:26;102390.69;;;10.45;87.09
37852;BME280;23691;52.486;4.650;2023-02-19T09:56:55;102395.09;;;10.46;86.96
37852;BME280;23691;52.486;4.650;2023-02-19T09:59:27;102401.06;;;10.39;86.54
37852;BME280;23691;52.486;4.650;2023-02-19T10:02:03;102411.25;;;10.34;86.15
37852;BME280;23691;52.486;4.650;2023-02-19T10:04:29;102425.38;;;10.36;85.98
37852;BME280;23691;52.486;4.650;2023-02-19T10:06:57;102430.97;;;10.32;86.10
37852;BME280;23691;52.486;4.650;2023-02-19T10:09:29;102438.59;;;10.26;85.61
37852;BME280;23691;52.486;4.650;2023-02-19T10:11:54;102445.78;;;10.25;85.52
37852;BME280;23691;52.486;4.650;2023-02-19T10:14:36;102439.00;;;10.32;85.51
37852;BME280;23691;52.486;4.650;2023-02-19T10:17:04;102445.31;;;10.43;85.17
37852;BME280;23691;52.486;4.650;2023-02-19T10:19:31;102452.75;;;10.39;84.89
37852;BME280;23691;52.486;4.650;2023-02-19T10:21:58;102451.66;;;10.30;84.93
37852;BME280;23691;52.486;4.650;2023-02-19T10:24:27;102457.69;;;10.21;84.83
37852;BME280;23691;52.486;4.650;2023-02-19T10:26:54;102458.09;;;10.17;84.78
37852;BME280;23691;52.486;4.650;2023-02-19T10:29:20;102465.00;;;10.19;85.06
37852;BME280;23691;52.486;4.650;2023-02-19T10:31:46;102452.97;;;10.14;84.27
37852;BME280;23691;52.486;4.650;2023-02-19T10:34:20;102453.59;;;10.17;84.03
37852;BME280;23691;52.486;4.650;2023-02-19T10:36:47;102457.84;;;10.20;84.00
37852;BME280;23691;52.486;4.650;2023-02-19T10:41:48;102456.25;;;10.17;82.66
37852;BME280;23691;52.486;4.650;2023-02-19T10:44:20;102443.63;;;10.08;82.56
37852;BME280;23691;52.486;4.650;2023-02-19T10:46:49;102449.06;;;10.06;82.56
37852;BME280;23691;52.486;4.650;2023-02-19T10:49:28;102451.53;;;10.09;82.91
37852;BME280;23691;52.486;4.650;2023-02-19T10:52:02;102462.94;;;10.00;83.00
37852;BME280;23691;52.486;4.650;2023-02-19T10:54:34;102470.94;;;9.89;83.01
37852;BME280;23691;52.486;4.650;2023-02-19T10:57:29;102480.94;;;9.87;83.67
37852;BME280;23691;52.486;4.650;2023-02-19T11:02:24;102490.75;;;9.75;83.53
37852;BME280;23691;52.486;4.650;2023-02-19T11:07:34;102494.03;;;9.67;83.88
37852;BME280;23691;52.486;4.650;2023-02-19T11:10:02;102506.00;;;9.62;84.04
37852;BME280;23691;52.486;4.650;2023-02-19T11:12:30;102501.88;;;9.58;84.46
37852;BME280;23691;52.486;4.650;2023-02-19T11:14:56;102504.56;;;9.58;84.39
37852;BME280;23691;52.486;4.650;2023-02-19T11:17:29;102507.25;;;9.58;84.51
37852;BME280;23691;52.486;4.650;2023-02-19T11:19:59;102516.00;;;9.60;84.38
37852;BME280;23691;52.486;4.650;2023-02-19T11:24:54;102506.50;;;9.67;84.39
37852;BME280;23691;52.486;4.650;2023-02-19T11:27:21;102505.66;;;9.66;84.25
37852;BME280;23691;52.486;4.650;2023-02-19T11:29:48;102511.50;;;9.60;84.71
37852;BME280;23691;52.486;4.650;2023-02-19T11:34:45;102514.97;;;9.50;84.97
37852;BME280;23691;52.486;4.650;2023-02-19T11:37:16;102504.28;;;9.50;85.10
37852;BME280;23691;52.486;4.650;2023-02-19T11:39:49;102513.50;;;9.45;85.04
37852;BME280;23691;52.486;4.650;2023-02-19T11:45:33;102507.44;;;9.43;84.82
37852;BME280;23691;52.486;4.650;2023-02-19T11:48:31;102507.69;;;9.52;84.56
37852;BME280;23691;52.486;4.650;2023-02-19T11:54:04;102529.81;;;9.54;84.43
37852;BME280;23691;52.486;4.650;2023-02-19T11:56:35;102525.50;;;9.40;84.34
37852;BME280;23691;52.486;4.650;2023-02-19T11:59:11;102532.16;;;9.34;84.32
37852;BME280;23691;52.486;4.650;2023-02-19T12:01:57;102535.66;;;9.23;84.71
37852;BME280;23691;52.486;4.650;2023-02-19T12:12:25;102534.81;;;9.34;84.01
37852;BME280;23691;52.486;4.650;2023-02-19T12:20:33;102543.22;;;9.65;83.46
37852;BME280;23691;52.486;4.650;2023-02-19T12:23:23;102543.97;;;9.78;83.33
37852;BME280;23691;52.486;4.650;2023-02-19T12:26:20;102527.84;;;10.02;83.30
37852;BME280;23691;52.486;4.650;2023-02-19T12:40:08;102543.53;;;10.18;81.15
37852;BME280;23691;52.486;4.650;2023-02-19T12:45:09;102567.53;;;10.42;79.23
37852;BME280;23691;52.486;4.650;2023-02-19T12:47:41;102574.84;;;10.51;78.50
37852;BME280;23691;52.486;4.650;2023-02-19T12:50:17;102581.28;;;10.60;78.10
37852;BME280;23691;52.486;4.650;2023-02-19T12:52:50;102577.50;;;10.74;77.63
37852;BME280;23691;52.486;4.650;2023-02-19T12:55:33;102586.50;;;10.73;76.69
37852;BME280;23691;52.486;4.650;2023-02-19T12:58:02;102590.41;;;10.69;76.08
37852;BME280;23691;52.486;4.650;2023-02-19T13:00:43;102579.59;;;10.59;74.98
37852;BME280;23691;52.486;4.650;2023-02-19T13:03:29;102576.28;;;10.56;75.04
37852;BME280;23691;52.486;4.650;2023-02-19T13:08:55;102576.44;;;10.54;74.25
37852;BME280;23691;52.486;4.650;2023-02-19T13:11:32;102582.75;;;10.53;74.27
37852;BME280;23691;52.486;4.650;2023-02-19T13:14:18;102588.94;;;10.42;73.80
37852;BME280;23691;52.486;4.650;2023-02-19T13:16:49;102583.56;;;10.31;73.73
37852;BME280;23691;52.486;4.650;2023-02-19T13:19:15;102606.63;;;10.21;73.72
37852;BME280;23691;52.486;4.650;2023-02-19T13:21:43;102608.56;;;10.19;74.08
37852;BME280;23691;52.486;4.650;2023-02-19T13:24:35;102609.31;;;10.21;73.96
37852;BME280;23691;52.486;4.650;2023-02-19T13:27:04;102614.91;;;10.18;73.81
37852;BME280;23691;52.486;4.650;2023-02-19T13:37:44;102612.59;;;10.13;74.11
37852;BME280;23691;52.486;4.650;2023-02-19T13:42:56;102620.97;;;10.08;73.70
37852;BME280;23691;52.486;4.650;2023-02-19T13:52:50;102628.19;;;9.84;74.09
37852;BME280;23691;52.486;4.650;2023-02-19T13:58:36;102628.56;;;9.91;74.01
37852;BME280;23691;52.486;4.650;2023-02-19T14:01:07;102621.28;;;9.93;73.75
37852;BME280;23691;52.486;4.650;2023-02-19T14:06:03;102621.28;;;9.93;73.72
37852;BME280;23691;52.486;4.650;2023-02-19T14:08:55;102618.13;;;9.99;73.34
37852;BME280;23691;52.486;4.650;2023-02-19T14:16:55;102594.41;;;9.83;71.98
37852;BME280;23691;52.486;4.650;2023-02-19T14:25:33;102590.75;;;9.73;71.95
37852;BME280;23691;52.486;4.650;2023-02-19T14:28:25;102571.53;;;9.67;72.07
37852;BME280;23691;52.486;4.650;2023-02-19T14:30:57;102574.31;;;9.66;71.85
37852;BME280;23691;52.486;4.650;2023-02-19T14:33:36;102567.88;;;9.68;71.80
37852;BME280;23691;52.486;4.650;2023-02-19T14:38:58;102583.31;;;9.65;71.97
37852;BME280;23691;52.486;4.650;2023-02-19T14:41:26;102583.06;;;9.68;72.16
37852;BME280;23691;52.486;4.650;2023-02-19T14:43:55;102586.13;;;9.75;72.27
37852;BME280;23691;52.486;4.650;2023-02-19T14:49:15;102593.28;;;9.74;72.18
37852;BME280;23691;52.486;4.650;2023-02-19T14:51:46;102588.44;;;9.79;72.39
37852;BME280;23691;52.486;4.650;2023-02-19T14:54:19;102593.31;;;9.85;72.32
37852;BME280;23691;52.486;4.650;2023-02-19T14:56:50;102596.00;;;9.85;72.44
37852;BME280;23691;52.486;4.650;2023-02-19T14:59:23;102601.78;;;9.79;72.33
37852;BME280;23691;52.486;4.650;2023-02-19T15:01:59;102604.44;;;9.68;72.33
37852;BME280;23691;52.486;4.650;2023-02-19T15:04:34;102605.38;;;9.67;72.27
37852;BME280;23691;52.486;4.650;2023-02-19T15:07:02;102608.53;;;9.61;72.11
37852;BME280;23691;52.486;4.650;2023-02-19T15:09:40;102601.50;;;9.60;72.31